createdAt,value
2022-12-31T00:02:09.941Z,96246.47
2022-12-31T00:06:26.551Z,96254.94
2022-12-31T00:10:49.018Z,96248.34
2022-12-31T00:15:01.436Z,96243.81
2022-12-31T00:19:13.795Z,96237.59
2022-12-31T00:23:26.635Z,96235.19
2022-12-31T00:27:38.921Z,96237.16
2022-12-31T00:32:01.796Z,96225.69
2022-12-31T00:36:20.365Z,96234.84
2022-12-31T00:40:32.755Z,96238.47
2022-12-31T00:44:45.175Z,96251.41
2022-12-31T00:48:57.448Z,96246.28
2022-12-31T00:53:09.760Z,96264.81
2022-12-31T00:57:22.788Z,96273.91
2022-12-31T01:01:38.784Z,96274.38
2022-12-31T01:05:51.334Z,96278.59
2022-12-31T01:10:06.073Z,96287.38
2022-12-31T01:14:20.212Z,96290.66
2022-12-31T01:18:32.512Z,96294.91
2022-12-31T01:22:54.820Z,96303.66
2022-12-31T01:27:11.802Z,96310.38
2022-12-31T01:31:25.050Z,96323.00
2022-12-31T01:35:47.401Z,96331.84
2022-12-31T01:40:00.845Z,96337.78
2022-12-31T01:44:13.069Z,96344.91
2022-12-31T01:48:27.693Z,96343.06
2022-12-31T01:52:47.639Z,96350.97
2022-12-31T01:57:02.385Z,96354.63
2022-12-31T02:01:22.633Z,96342.34
2022-12-31T02:05:48.892Z,96340.16
2022-12-31T02:10:01.421Z,96337.50
2022-12-31T02:14:24.486Z,96343.19
2022-12-31T02:18:51.259Z,96351.50
2022-12-31T02:23:35.915Z,96338.53
2022-12-31T02:28:20.372Z,96346.72
2022-12-31T02:32:51.344Z,96331.59
2022-12-31T02:37:07.826Z,96325.94
2022-12-31T02:41:40.178Z,96337.91
2022-12-31T02:46:08.377Z,96346.28
2022-12-31T02:50:40.368Z,96335.00
2022-12-31T02:55:11.214Z,96347.88
2022-12-31T03:00:26.874Z,96343.56
2022-12-31T03:04:42.727Z,96342.13
2022-12-31T03:09:13.546Z,96353.63
2022-12-31T03:13:27.755Z,96345.31
2022-12-31T03:17:40.027Z,96354.19
2022-12-31T03:22:10.816Z,96346.00
2022-12-31T03:26:23.093Z,96356.56
2022-12-31T03:30:43.380Z,96366.84
2022-12-31T03:34:56.720Z,96362.03
2022-12-31T03:39:19.018Z,96360.97
2022-12-31T03:43:31.505Z,96370.44
2022-12-31T03:47:53.774Z,96387.81
2022-12-31T03:52:07.259Z,96387.66
2022-12-31T03:56:29.553Z,96378.53
2022-12-31T04:00:41.844Z,96376.59
2022-12-31T04:04:54.334Z,96392.50
2022-12-31T04:09:07.157Z,96388.66
2022-12-31T04:13:19.909Z,96402.84
2022-12-31T04:17:32.546Z,96412.56
2022-12-31T04:21:44.883Z,96407.63
2022-12-31T04:25:57.255Z,96415.63
2022-12-31T04:30:10.594Z,96409.56
2022-12-31T04:34:23.035Z,96426.34
2022-12-31T04:38:35.642Z,96416.41
2022-12-31T04:42:47.908Z,96400.00
2022-12-31T04:47:00.175Z,96414.72
2022-12-31T04:51:12.633Z,96418.63
2022-12-31T04:55:24.993Z,96417.06
2022-12-31T04:59:37.281Z,96431.63
2022-12-31T05:03:49.805Z,96410.88
2022-12-31T05:08:03.193Z,96423.91
2022-12-31T05:12:18.588Z,96430.03
2022-12-31T05:16:30.904Z,96428.84
2022-12-31T05:20:43.213Z,96436.13
2022-12-31T05:24:55.946Z,96445.03
2022-12-31T05:29:18.219Z,96436.41
2022-12-31T05:33:31.079Z,96445.03
2022-12-31T05:37:43.942Z,96457.28
2022-12-31T05:41:56.265Z,96443.38
2022-12-31T05:46:08.838Z,96456.94
2022-12-31T05:50:21.518Z,96443.38
2022-12-31T05:54:34.199Z,96445.59
2022-12-31T05:58:56.568Z,96451.28
2022-12-31T06:03:09.743Z,96453.16
2022-12-31T06:07:22.155Z,96456.34
2022-12-31T06:11:34.545Z,96458.50
2022-12-31T06:15:46.924Z,96458.94
2022-12-31T06:20:01.246Z,96469.38
2022-12-31T06:24:14.813Z,96469.28
2022-12-31T06:28:27.117Z,96476.66
2022-12-31T06:32:41.450Z,96489.03
2022-12-31T06:36:53.965Z,96496.72
2022-12-31T06:41:07.758Z,96485.31
2022-12-31T06:45:20.886Z,96492.50
2022-12-31T06:49:43.178Z,96483.50
2022-12-31T06:53:55.527Z,96488.47
2022-12-31T06:58:13.814Z,96483.09
2022-12-31T07:03:11.001Z,96502.38
2022-12-31T07:07:47.660Z,96501.63
2022-12-31T07:12:13.671Z,96510.41
2022-12-31T07:16:34.681Z,96508.16
2022-12-31T07:20:47.253Z,96509.44
2022-12-31T07:25:00.039Z,96513.16
2022-12-31T07:29:25.843Z,96510.47
2022-12-31T07:33:40.873Z,96522.34
2022-12-31T07:38:13.200Z,96523.69
2022-12-31T07:42:39.017Z,96528.22
2022-12-31T07:46:59.868Z,96527.06
2022-12-31T07:51:12.745Z,96541.44
2022-12-31T07:55:25.088Z,96540.56
2022-12-31T08:00:06.354Z,96543.53
2022-12-31T08:04:43.939Z,96545.66
2022-12-31T08:09:39.991Z,96552.19
2022-12-31T08:13:54.452Z,96559.09
2022-12-31T08:18:09.614Z,96567.72
2022-12-31T08:22:59.122Z,96574.22
2022-12-31T08:27:20.982Z,96575.38
2022-12-31T08:31:36.795Z,96566.94
2022-12-31T08:35:51.898Z,96564.88
2022-12-31T08:40:23.288Z,96560.63
2022-12-31T08:44:56.545Z,96542.88
2022-12-31T08:49:12.637Z,96557.31
2022-12-31T08:53:25.624Z,96566.84
2022-12-31T08:58:04.189Z,96563.16
2022-12-31T09:02:48.200Z,96577.31
2022-12-31T09:07:03.753Z,96589.31
2022-12-31T09:11:43.998Z,96575.13
2022-12-31T09:16:05.868Z,96580.84
2022-12-31T09:20:41.921Z,96579.41
2022-12-31T09:24:55.787Z,96586.59
2022-12-31T09:29:28.166Z,96591.75
2022-12-31T09:33:56.388Z,96589.38
2022-12-31T09:38:41.830Z,96575.34
2022-12-31T09:43:25.818Z,96574.81
2022-12-31T09:48:02.593Z,96573.72
2022-12-31T09:52:33.154Z,96558.94
2022-12-31T09:57:09.629Z,96564.41
2022-12-31T10:01:34.838Z,96578.22
2022-12-31T10:06:23.578Z,96576.72
2022-12-31T10:10:50.445Z,96575.28
2022-12-31T10:15:43.389Z,96559.81
2022-12-31T10:20:04.617Z,96554.56
2022-12-31T10:24:34.994Z,96549.25
2022-12-31T10:29:06.881Z,96547.50
2022-12-31T10:33:31.010Z,96550.25
2022-12-31T10:37:53.047Z,96551.91
2022-12-31T10:42:36.806Z,96543.22
2022-12-31T10:47:23.924Z,96542.97
2022-12-31T10:52:16.518Z,96553.34
2022-12-31T10:56:37.736Z,96546.97
2022-12-31T11:01:14.317Z,96544.44
2022-12-31T11:05:32.625Z,96534.56
2022-12-31T11:10:15.549Z,96541.19
2022-12-31T11:15:07.250Z,96536.13
2022-12-31T11:19:49.918Z,96537.91
2022-12-31T11:24:19.883Z,96538.13
2022-12-31T11:28:42.770Z,96535.34
2022-12-31T11:33:07.766Z,96519.50
2022-12-31T11:37:49.465Z,96509.47
2022-12-31T11:42:22.134Z,96508.72
2022-12-31T11:46:48.269Z,96500.59
2022-12-31T11:51:12.725Z,96502.88
2022-12-31T11:55:43.263Z,96515.06
2022-12-31T11:59:59.753Z,96505.94
2022-12-31T13:02:30.661Z,96497.22
2022-12-31T13:06:59.372Z,96489.84
2022-12-31T13:11:29.861Z,96497.91
2022-12-31T13:15:58.385Z,96497.09
2022-12-31T13:20:26.837Z,96485.72
2022-12-31T13:25:19.867Z,96478.97
2022-12-31T13:29:35.569Z,96477.44
2022-12-31T13:34:05.664Z,96479.72
2022-12-31T13:38:24.931Z,96483.28
2022-12-31T13:42:52.560Z,96474.91
2022-12-31T13:47:21.219Z,96473.38
2022-12-31T13:51:52.128Z,96465.00
2022-12-31T13:56:20.688Z,96475.94
2022-12-31T14:00:48.270Z,96485.06
2022-12-31T14:05:12.783Z,96483.84
2022-12-31T14:09:27.743Z,96484.75
2022-12-31T14:13:51.668Z,96488.91
2022-12-31T14:18:07.762Z,96497.03
2022-12-31T14:22:34.859Z,96499.59
2022-12-31T14:26:53.414Z,96494.59
2022-12-31T14:31:20.820Z,96500.66
2022-12-31T14:35:56.744Z,96510.28
2022-12-31T14:40:33.498Z,96511.25
2022-12-31T14:45:17.507Z,96523.84
2022-12-31T14:49:57.760Z,96538.06
2022-12-31T14:54:34.911Z,96529.94
2022-12-31T14:58:59.824Z,96531.13
2022-12-31T15:03:15.178Z,96530.25
2022-12-31T15:07:36.466Z,96532.59
2022-12-31T15:12:17.737Z,96514.66
2022-12-31T15:16:52.029Z,96513.91
2022-12-31T15:21:29.076Z,96513.03
2022-12-31T15:25:48.596Z,96522.28
2022-12-31T15:30:33.477Z,96527.72
2022-12-31T15:34:45.841Z,96533.19
2022-12-31T15:39:07.750Z,96541.13
2022-12-31T15:43:25.936Z,96549.28
2022-12-31T15:47:42.250Z,96545.59
2022-12-31T15:52:02.209Z,96546.09
2022-12-31T15:56:21.323Z,96545.94
2022-12-31T16:01:02.949Z,96545.78
2022-12-31T16:05:36.074Z,96545.13
2022-12-31T16:09:54.292Z,96544.97
2022-12-31T16:14:07.745Z,96543.56
2022-12-31T16:18:44.470Z,96546.00
2022-12-31T16:23:02.408Z,96552.59
2022-12-31T16:27:17.243Z,96551.31
2022-12-31T16:31:30.832Z,96548.84
2022-12-31T16:35:43.666Z,96553.78
2022-12-31T16:39:58.658Z,96549.00
2022-12-31T16:44:25.991Z,96560.50
2022-12-31T16:48:39.156Z,96557.06
2022-12-31T16:53:03.293Z,96548.38
2022-12-31T16:57:25.314Z,96545.81
2022-12-31T17:01:39.175Z,96535.03
2022-12-31T17:05:56.546Z,96537.81
2022-12-31T17:10:08.794Z,96546.69
2022-12-31T17:14:31.299Z,96554.63
2022-12-31T17:18:44.743Z,96552.91
2022-12-31T17:23:00.394Z,96551.53
2022-12-31T17:27:12.842Z,96539.19
2022-12-31T17:31:34.270Z,96549.75
2022-12-31T17:35:47.487Z,96539.72
2022-12-31T17:40:40.546Z,96530.38
2022-12-31T17:44:39.289Z,96539.59
2022-12-31T17:48:57.895Z,96544.66
2022-12-31T17:53:21.230Z,96537.88
2022-12-31T17:57:33.638Z,96547.06
2022-12-31T18:01:52.977Z,96544.50
2022-12-31T18:06:09.124Z,96545.75
2022-12-31T18:10:25.351Z,96526.78
2022-12-31T18:14:37.789Z,96533.34
2022-12-31T18:19:01.741Z,96539.03
2022-12-31T18:23:21.489Z,96527.00
2022-12-31T18:27:35.621Z,96518.69
2022-12-31T18:31:50.258Z,96524.28
2022-12-31T18:36:10.580Z,96522.41
2022-12-31T18:40:22.997Z,96542.34
2022-12-31T18:44:46.140Z,96542.94
2022-12-31T18:48:58.969Z,96551.28
2022-12-31T18:53:20.544Z,96555.78
2022-12-31T18:57:32.813Z,96563.69
2022-12-31T19:01:45.344Z,96567.72
2022-12-31T19:05:58.292Z,96563.94
2022-12-31T19:10:14.205Z,96568.25
2022-12-31T19:14:28.035Z,96586.47
2022-12-31T19:18:42.266Z,96578.41
2022-12-31T19:22:54.706Z,96604.97
2022-12-31T19:27:06.980Z,96603.53
2022-12-31T19:31:19.617Z,96610.19
2022-12-31T19:35:42.647Z,96602.16
2022-12-31T19:39:54.884Z,96605.41
2022-12-31T19:44:20.304Z,96606.97
2022-12-31T19:48:33.635Z,96632.94
2022-12-31T19:52:48.802Z,96632.19
2022-12-31T19:57:01.106Z,96641.03
2022-12-31T20:01:20.681Z,96635.16
2022-12-31T20:05:34.375Z,96628.00
2022-12-31T20:09:46.644Z,96626.47
2022-12-31T20:13:58.984Z,96629.06
2022-12-31T20:18:21.791Z,96632.81
2022-12-31T20:22:34.490Z,96647.22
2022-12-31T20:26:47.570Z,96650.31
2022-12-31T20:31:00.107Z,96652.84
2022-12-31T20:35:12.435Z,96656.66
2022-12-31T20:39:24.765Z,96655.34
2022-12-31T20:43:45.982Z,96663.44
2022-12-31T20:47:58.500Z,96655.38
2022-12-31T20:52:10.798Z,96659.44
2022-12-31T20:56:23.299Z,96653.19
2022-12-31T21:00:35.586Z,96658.94
2022-12-31T21:04:48.130Z,96642.81
2022-12-31T21:09:02.523Z,96648.25
2022-12-31T21:13:15.147Z,96645.69
2022-12-31T21:17:27.474Z,96641.47
2022-12-31T21:21:39.778Z,96640.03
2022-12-31T21:25:52.260Z,96635.63
2022-12-31T21:30:21.117Z,96635.97
2022-12-31T21:34:33.799Z,96632.00
2022-12-31T21:38:46.188Z,96644.28
2022-12-31T21:43:08.653Z,96640.03
2022-12-31T21:47:47.101Z,96649.59
2022-12-31T21:52:18.819Z,96656.81
2022-12-31T21:56:41.168Z,96652.22
2022-12-31T22:01:12.655Z,96651.50
2022-12-31T22:05:32.035Z,96649.09
2022-12-31T22:09:44.317Z,96642.31
2022-12-31T22:14:06.580Z,96635.94
2022-12-31T22:18:29.668Z,96642.97
2022-12-31T22:22:41.959Z,96644.88
2022-12-31T22:26:56.364Z,96644.72
2022-12-31T22:31:25.182Z,96646.94
2022-12-31T22:35:37.480Z,96649.63
2022-12-31T22:39:49.806Z,96660.19
2022-12-31T22:44:04.653Z,96653.34
2022-12-31T22:48:17.117Z,96643.50
2022-12-31T22:52:29.378Z,96640.75
2022-12-31T22:56:42.057Z,96646.00
2022-12-31T23:00:54.497Z,96646.44
2022-12-31T23:05:16.118Z,96648.31
2022-12-31T23:09:47.068Z,96654.16
2022-12-31T23:14:17.944Z,96654.59
2022-12-31T23:18:48.932Z,96637.81
2022-12-31T23:23:16.858Z,96633.50
2022-12-31T23:27:29.336Z,96627.66
2022-12-31T23:31:41.626Z,96645.06
2022-12-31T23:36:07.634Z,96648.56
2022-12-31T23:40:21.885Z,96634.91
2022-12-31T23:44:34.399Z,96627.00
2022-12-31T23:48:46.760Z,96629.75
2022-12-31T23:52:59.013Z,96622.94
2022-12-31T23:57:11.499Z,96634.34
